Rotterdam — PDGS — position and weather

sailwx.info

Track history (hours):
 
Tides and Currents Weather Stations Pressure Air Temp Water Temp Dewpoint Dewpoint Depression Visibility Wind Speed Wind Dir Waves Ship Positions

Rotterdam

Operator: Holland America Line

Last reported at 2017-Jun-26 04:46 UTC. Time now 2017-Jun-26 12:10 UTC.
Position N 56°01' W 003°19'.

Length 228 m; beam 29 m.

Type: Ship. MMSI: 24616700.

Date/timePositionNaut miles runAvg speedWind from/ knotsBaromVisibWave heightAir tempDewpointWater temp
2017-Jun-26 04:46N 56°01' W 003°19'415.4
2017-Jun-26 04:31N 56°02' W 003°12'714.3
2017-Jun-26 04:00N 56°05' W 003°00'5 9.6
2017-Jun-26 03:30N 56°06' W 002°52'510.9
2017-Jun-26 03:00N 56°08' W 002°43'510.3
2017-Jun-26 02:30N 56°08' W 002°34'510.8
2017-Jun-26 02:00N 56°08' W 002°24'510.7
2017-Jun-26 01:30N 56°08' W 002°14'510.3
2017-Jun-26 01:00N 56°06' W 002°06'510.8
2017-Jun-26 00:30N 56°03' W 001°57'510.0
2017-Jun-26 00:00N 56°01' W 001°50'1197625.4
2017-Jun-26 00:00N 55°54' E 001°42'114234.4 290 / 251008.810.8 13.0 7.916.0
2017-Jun-25 23:30N 55°58' W 001°42'1511.3
2017-Jun-25 22:13N 55°49' W 001°21'1 6.6
2017-Jun-25 22:00N 55°48' W 001°19'1014.8
2017-Jun-25 21:18N 55°41' W 001°07'6410.3
2017-Jun-25 15:05N 54°57' E 000°16'110.1
2017-Jun-25 15:00N 54°57' E 000°17'4310.8
2017-Jun-25 11:00N 54°24' E 001°06'103 9.4 250 / 221006.810.8 14.0 8.215.0
2017-Jun-25 00:00N 53°00' E 002°48'6511.2 250 / 231006.810.8 15.513.517.0
2017-Jun-24 18:12N 52°05' E 003°45'0 0.0
2017-Jun-24 18:00N 52°05' E 003°45'4 8.4
2017-Jun-24 17:30N 52°04' E 003°51'5 9.6
2017-Jun-24 17:00N 52°01' E 003°58'713.2
2017-Jun-24 16:30N 51°58' E 004°08'611.6
2017-Jun-24 16:00N 51°55' E 004°15'5 9.0
2017-Jun-24 15:30N 51°54' E 004°22'3 7.0
2017-Jun-24 15:00N 51°54' E 004°28'1 0.9
2017-Jun-24 14:00N 51°54' E 004°29'0 0.0
2017-Jun-24 13:30N 51°54' E 004°29'0 0.0
2017-Jun-24 13:00N 51°54' E 004°29'0 0.0
2017-Jun-24 12:30N 51°54' E 004°29'0 0.0
2017-Jun-24 12:00N 51°54' E 004°29'0 0.0
2017-Jun-24 11:30N 51°54' E 004°29'0 0.0
2017-Jun-24 11:00N 51°54' E 004°29'0 0.0
2017-Jun-24 10:30N 51°54' E 004°29'0 0.0
2017-Jun-24 10:00N 51°54' E 004°29'0 0.0
2017-Jun-24 09:30N 51°54' E 004°29'0 0.0
2017-Jun-24 09:00N 51°54' E 004°29'0 0.0
2017-Jun-24 08:30N 51°54' E 004°29'0 0.0
2017-Jun-24 08:00N 51°54' E 004°29'0 0.0
2017-Jun-24 07:30N 51°54' E 004°29'0 0.0
2017-Jun-24 07:00N 51°54' E 004°29'0 0.0
2017-Jun-24 06:30N 51°54' E 004°29'0 0.0
2017-Jun-24 06:00N 51°54' E 004°29'0 0.0
2017-Jun-24 05:30N 51°54' E 004°29'0 0.1
2017-Jun-24 05:00N 51°54' E 004°29'0 0.7
2017-Jun-24 04:30N 51°54' E 004°29'3 6.8
2017-Jun-24 04:00N 51°54' E 004°23'4 7.6
2017-Jun-24 03:30N 51°54' E 004°17'510.9
2017-Jun-24 03:01N 51°57' E 004°10'714.0
2017-Jun-24 02:30N 52°00' E 003°60'713.9
2017-Jun-24 02:00N 52°01' E 003°48'714.2
2017-Jun-24 01:30N 52°08' E 003°46'714.7
2017-Jun-24 01:00N 52°15' E 003°47'714.7
2017-Jun-24 00:30N 52°22' E 003°48'714.4
2017-Jun-24 00:00N 52°30' E 003°48'0117.2
2017-Jun-24 00:00N 52°30' E 003°48'713.8 250 / 311012.110.8 17.413.918.0
2017-Jun-23 23:30N 52°37' E 003°50'714.5
2017-Jun-23 23:00N 52°43' E 003°55'714.7
2017-Jun-23 22:30N 52°50' E 003°57'815.2
2017-Jun-23 22:00N 52°58' E 004°02'816.7
2017-Jun-23 21:30N 53°03' E 004°13'916.8
2017-Jun-23 21:00N 53°09' E 004°23'916.9
2017-Jun-23 20:29N 53°17' E 004°28'816.7
2017-Jun-23 20:00N 53°24' E 004°33'28216.5
2017-Jun-23 02:54N 57°32' E 008°33'616.7
2017-Jun-23 02:30N 57°37' E 008°40'916.8
2017-Jun-23 02:00N 57°43' E 008°51'817.1
2017-Jun-23 01:30N 57°50' E 009°00'816.9
2017-Jun-23 01:00N 57°56' E 009°11'5216.7
2017-Jun-22 21:55N 58°37' E 010°10'716.6
2017-Jun-22 21:30N 58°43' E 010°19'816.8
2017-Jun-22 21:00N 58°49' E 010°29'816.1
2017-Jun-22 20:30N 58°57' E 010°34'816.3
2017-Jun-22 20:01N 59°05' E 010°35'714.7
2017-Jun-22 19:30N 59°12' E 010°38'816.7
2017-Jun-22 19:00N 59°20' E 010°35'816.2
2017-Jun-22 18:30N 59°28' E 010°33'713.9
2017-Jun-22 18:00N 59°35' E 010°38'611.4
2017-Jun-22 17:31N 59°40' E 010°37'510.2
2017-Jun-22 17:01N 59°45' E 010°33'713.5
2017-Jun-22 16:30N 59°52' E 010°37'4 8.5
2017-Jun-22 16:00N 59°54' E 010°44'0 0.1
2017-Jun-22 15:29N 59°54' E 010°44'0 0.0
2017-Jun-22 14:59N 59°54' E 010°44'0 0.0
2017-Jun-22 13:59N 59°54' E 010°44'0 0.0
2017-Jun-22 13:29N 59°54' E 010°44'0 0.0
2017-Jun-22 12:59N 59°54' E 010°44'0 0.0
2017-Jun-22 12:29N 59°54' E 010°44'0 0.0
2017-Jun-22 11:59N 59°54' E 010°44'0 0.0
2017-Jun-22 11:29N 59°54' E 010°44'0 0.0
2017-Jun-22 10:59N 59°54' E 010°44'0 0.0
2017-Jun-22 10:29N 59°54' E 010°44'0 0.0
2017-Jun-22 09:59N 59°54' E 010°44'0 0.0
2017-Jun-22 09:29N 59°54' E 010°44'0 0.0
2017-Jun-22 08:59N 59°54' E 010°44'0 0.0
2017-Jun-22 08:29N 59°54' E 010°44'0 0.0
2017-Jun-22 07:59N 59°54' E 010°44'0 0.0
2017-Jun-22 07:29N 59°54' E 010°44'0 0.0
2017-Jun-22 06:59N 59°54' E 010°44'0 0.0
2017-Jun-22 06:29N 59°54' E 010°44'0 0.0
2017-Jun-22 05:59N 59°54' E 010°44'0 0.0
2017-Jun-22 05:29N 59°54' E 010°44'0 0.0
2017-Jun-22 04:59N 59°54' E 010°44'0 0.0
2017-Jun-22 04:29N 59°54' E 010°44'0 0.0
2017-Jun-22 03:59N 59°54' E 010°44'0 0.0
2017-Jun-22 03:29N 59°54' E 010°44'0 0.0
2017-Jun-22 02:59N 59°54' E 010°44'0 0.0
2017-Jun-22 02:29N 59°54' E 010°44'0 0.0
2017-Jun-22 01:59N 59°54' E 010°44'0 0.0
2017-Jun-22 01:29N 59°54' E 010°44'0 0.0
2017-Jun-22 00:59N 59°54' E 010°44'0 0.0
2017-Jun-22 00:29N 59°54' E 010°44'0 0.0
2017-Jun-21 23:59N 59°54' E 010°44'0 0.0
2017-Jun-21 23:29N 59°54' E 010°44'0 0.0
2017-Jun-21 22:59N 59°54' E 010°44'0 0.0
2017-Jun-21 22:29N 59°54' E 010°44'0 0.0
2017-Jun-21 21:59N 59°54' E 010°44'0 0.0
2017-Jun-21 21:29N 59°54' E 010°44'0 0.0
2017-Jun-21 20:59N 59°54' E 010°44'0 0.0
2017-Jun-21 20:29N 59°54' E 010°44'0 0.0
2017-Jun-21 19:59N 59°54' E 010°44'0 0.0
2017-Jun-21 19:29N 59°54' E 010°44'0 0.0
2017-Jun-21 18:59N 59°54' E 010°44'0 0.0
2017-Jun-21 18:29N 59°54' E 010°44'0 0.0
2017-Jun-21 17:59N 59°54' E 010°44'0 0.0
2017-Jun-21 17:29N 59°54' E 010°44'0 0.0
2017-Jun-21 16:59N 59°54' E 010°44'0 0.0
2017-Jun-21 16:29N 59°54' E 010°44'0 0.0
2017-Jun-21 15:59N 59°54' E 010°44'0 0.0
2017-Jun-21 15:29N 59°54' E 010°44'0 0.0
2017-Jun-21 14:59N 59°54' E 010°44'0 0.0
2017-Jun-21 13:59N 59°54' E 010°44'0 0.0
2017-Jun-21 13:29N 59°54' E 010°44'0 0.0
2017-Jun-21 12:59N 59°54' E 010°44'0 0.0
2017-Jun-21 12:29N 59°54' E 010°44'0 0.0
2017-Jun-21 11:59N 59°54' E 010°44'0 0.0
2017-Jun-21 11:29N 59°54' E 010°44'0 0.0
2017-Jun-21 10:59N 59°54' E 010°44'0 0.0
2017-Jun-21 10:29N 59°54' E 010°44'0 0.0
2017-Jun-21 09:59N 59°54' E 010°44'0 0.0
2017-Jun-21 09:29N 59°54' E 010°44'0 0.0
2017-Jun-21 08:59N 59°54' E 010°44'0 0.0
2017-Jun-21 08:29N 59°54' E 010°44'0 0.0
2017-Jun-21 07:59N 59°54' E 010°44'0 0.0
2017-Jun-21 07:29N 59°54' E 010°44'0 0.0
2017-Jun-21 06:59N 59°54' E 010°44'0 0.0
2017-Jun-21 06:29N 59°54' E 010°44'0 0.0
2017-Jun-21 05:59N 59°54' E 010°44'0 0.0
2017-Jun-21 05:31N 59°54' E 010°44'2 4.4
2017-Jun-21 05:00N 59°53' E 010°40'713.6
2017-Jun-21 04:30N 59°47' E 010°35'612.5
2017-Jun-21 04:00N 59°41' E 010°36'612.9
2017-Jun-21 03:31N 59°35' E 010°38'713.9
2017-Jun-21 03:01N 59°28' E 010°34'816.5
2017-Jun-21 02:31N 59°20' E 010°36'816.4
2017-Jun-21 02:01N 59°12' E 010°39'714.3
2017-Jun-21 01:31N 59°05' E 010°36'510.9
2017-Jun-21 01:01N 58°59' E 010°33'611.7
2017-Jun-21 00:31N 58°55' E 010°26'611.7
2017-Jun-21 00:00N 58°51' E 010°19'3184.0
2017-Jun-21 00:00N 58°48' E 010°18'4 8.3 320 / 301011.910.8 13.7 3.216.0
2017-Jun-20 23:31N 58°46' E 010°11'511.0
2017-Jun-20 23:01N 58°42' E 010°04'10910.6
2017-Jun-20 12:39N 57°43' E 007°10'211.7
2017-Jun-20 12:28N 57°43' E 007°06'511.8
2017-Jun-20 12:00N 57°43' E 006°56'611.8
2017-Jun-20 11:30N 57°43' E 006°45'611.3
2017-Jun-20 11:00N 57°44' E 006°34'611.4
2017-Jun-20 10:30N 57°47' E 006°26'510.8
2017-Jun-20 10:00N 57°51' E 006°18'33372.8
2017-Jun-20 10:00N 57°48' E 006°18'715.0 300 / 281017.410.8 16.6 6.115.0
2017-Jun-20 09:30N 57°54' E 006°11'510.3
2017-Jun-20 09:00N 57°57' E 006°03'5 9.3
2017-Jun-20 08:29N 58°01' E 005°57'510.2
2017-Jun-20 08:00N 58°04' E 005°50'1211.7
2017-Jun-20 06:58N 58°12' E 005°32'1811.6
2017-Jun-20 05:28N 58°24' E 005°08'511.4
2017-Jun-20 05:00N 58°28' E 005°01'611.5
2017-Jun-20 04:30N 58°32' E 004°53'611.7
2017-Jun-20 04:00N 58°36' E 004°46'38 9.5
2017-Jun-20 00:00N 59°06' E 004°00'4911.6 280 / 271015.510.8 12.2 8.114.0
2017-Jun-19 19:49N 59°51' E 004°36'311.1
2017-Jun-19 19:30N 59°54' E 004°39'610.9
2017-Jun-19 19:00N 59°59' E 004°45'611.1
2017-Jun-19 18:30N 60°04' E 004°51'611.3
2017-Jun-19 18:00N 60°08' E 004°57'510.6
2017-Jun-19 17:30N 60°10' E 005°07'713.2
2017-Jun-19 17:00N 60°16' E 005°10'611.6
2017-Jun-19 16:30N 60°22' E 005°10'5 9.5
2017-Jun-19 16:00N 60°24' E 005°19'0 0.2
2017-Jun-19 15:30N 60°24' E 005°19'0 0.0
2017-Jun-19 15:00N 60°24' E 005°19'0 0.0
2017-Jun-19 14:30N 60°24' E 005°19'0 0.0
2017-Jun-19 13:30N 60°24' E 005°19'0 0.0
2017-Jun-19 13:00N 60°24' E 005°19'0 0.0
2017-Jun-19 12:30N 60°24' E 005°19'0 0.0
2017-Jun-19 12:00N 60°24' E 005°19'0 0.0
2017-Jun-19 11:30N 60°24' E 005°19'0 0.0
2017-Jun-19 11:00N 60°24' E 005°19'0 0.0
2017-Jun-19 10:30N 60°24' E 005°19'0 0.0
2017-Jun-19 10:00N 60°24' E 005°19'0 0.0
2017-Jun-19 09:30N 60°24' E 005°19'0 0.0
2017-Jun-19 09:00N 60°24' E 005°19'0 0.0
2017-Jun-19 08:30N 60°24' E 005°19'0 0.0
2017-Jun-19 08:00N 60°24' E 005°19'0 0.0
2017-Jun-19 07:30N 60°24' E 005°19'0 0.0
2017-Jun-19 07:00N 60°24' E 005°19'0 0.0
2017-Jun-19 06:30N 60°24' E 005°19'0 0.0
2017-Jun-19 06:00N 60°24' E 005°19'0 0.0
2017-Jun-19 05:30N 60°24' E 005°19'0 0.0
2017-Jun-19 04:57N 60°24' E 005°19'0 0.0
2017-Jun-19 04:30N 60°24' E 005°19'0 0.0
2017-Jun-19 04:00N 60°24' E 005°19'0 0.0
2017-Jun-19 03:30N 60°24' E 005°19'0 0.0
2017-Jun-19 03:00N 60°24' E 005°19'072.5
2017-Jun-19 03:00N 60°24' E 005°18'0 0.7 220 / 31018.4 5.4 12.5 8.613.0
2017-Jun-19 02:30N 60°24' E 005°19'0 0.0
2017-Jun-19 02:00N 60°24' E 005°19'0 0.0
2017-Jun-19 01:30N 60°24' E 005°19'0 0.0
2017-Jun-19 01:00N 60°24' E 005°19'0 0.0
2017-Jun-19 00:30N 60°24' E 005°19'0 0.0
2017-Jun-19 00:00N 60°24' E 005°19'0 0.0
2017-Jun-18 23:30N 60°24' E 005°19'0 0.0
2017-Jun-18 23:00N 60°24' E 005°19'0 0.0
2017-Jun-18 22:30N 60°24' E 005°19'0 0.0
2017-Jun-18 22:00N 60°24' E 005°19'0 0.0
2017-Jun-18 21:30N 60°24' E 005°19'0 0.0
2017-Jun-18 21:00N 60°24' E 005°19'0 0.0
2017-Jun-18 20:30N 60°24' E 005°19'0 0.0
2017-Jun-18 20:00N 60°24' E 005°19'0 0.0
2017-Jun-18 19:30N 60°24' E 005°19'0 0.0
2017-Jun-18 19:00N 60°24' E 005°19'0 0.0
2017-Jun-18 18:30N 60°24' E 005°19'0 0.0
2017-Jun-18 18:00N 60°24' E 005°19'0 0.0
2017-Jun-18 17:30N 60°24' E 005°19'0 0.0
2017-Jun-18 17:00N 60°24' E 005°19'0 0.0
2017-Jun-18 16:30N 60°24' E 005°19'0 0.0
2017-Jun-18 16:00N 60°24' E 005°19'0 0.0
2017-Jun-18 15:30N 60°24' E 005°19'0 0.0
2017-Jun-18 15:00N 60°24' E 005°19'0 0.0
2017-Jun-18 14:00N 60°24' E 005°19'0 0.0
2017-Jun-18 13:30N 60°24' E 005°19'0 0.0
2017-Jun-18 13:00N 60°24' E 005°19'0 0.0
2017-Jun-18 12:30N 60°24' E 005°19'0 0.0
2017-Jun-18 12:00N 60°24' E 005°19'0 0.0
2017-Jun-18 11:30N 60°24' E 005°19'0 0.0
2017-Jun-18 11:00N 60°24' E 005°19'0 0.0
2017-Jun-18 10:30N 60°24' E 005°19'0 0.0
2017-Jun-18 10:00N 60°24' E 005°19'0 0.0
2017-Jun-18 09:30N 60°24' E 005°19'0 0.0
2017-Jun-18 09:00N 60°24' E 005°19'0 0.0
2017-Jun-18 08:30N 60°24' E 005°19'0 0.0
2017-Jun-18 07:57N 60°24' E 005°19'0 0.0
2017-Jun-18 07:30N 60°24' E 005°19'0 0.0
2017-Jun-18 07:00N 60°24' E 005°19'0 0.0
2017-Jun-18 06:30N 60°24' E 005°19'0 0.0
2017-Jun-18 06:00N 60°24' E 005°19'0 0.3
2017-Jun-18 05:30N 60°24' E 005°18'4 7.7
2017-Jun-18 05:00N 60°23' E 005°11'5 9.8
2017-Jun-18 04:30N 60°26' E 005°02'611.7
2017-Jun-18 04:00N 60°31' E 004°58'510.9
2017-Jun-18 03:30N 60°36' E 004°54'611.2
2017-Jun-18 03:00N 60°41' E 004°49'612.0
2017-Jun-18 02:30N 60°45' E 004°39'612.2
2017-Jun-18 02:01N 60°45' E 004°26'1010.2
2017-Jun-18 01:00N 60°42' E 004°06'11 8.0 220 / 161015.8 5.4 12.011.812.0
2017-Jun-17 23:39N 60°51' E 004°17'316.6
2017-Jun-17 23:30N 60°52' E 004°22'816.5
2017-Jun-17 23:00N 60°55' E 004°38'816.2
2017-Jun-17 22:30N 61°00' E 004°49'816.3
2017-Jun-17 22:00N 61°05' E 005°04'815.5
2017-Jun-17 21:30N 61°04' E 005°19'816.0
2017-Jun-17 21:00N 61°06' E 005°35'917.5
2017-Jun-17 20:30N 61°09' E 005°53'917.8
2017-Jun-17 19:59N 61°08' E 006°12'816.9
2017-Jun-17 19:30N 61°06' E 006°29'815.4
2017-Jun-17 19:00N 61°11' E 006°42'816.2
2017-Jun-17 18:30N 61°06' E 006°56'816.5
2017-Jun-17 18:00N 60°59' E 007°04'612.5
2017-Jun-17 17:30N 60°53' E 007°09'1 2.3
2017-Jun-17 16:58N 60°52' E 007°08'0 0.0
2017-Jun-17 16:28N 60°52' E 007°08'0 0.0
2017-Jun-17 15:58N 60°52' E 007°08'0 0.0
2017-Jun-17 15:28N 60°52' E 007°08'0 0.0
2017-Jun-17 14:58N 60°52' E 007°08'0 0.0
2017-Jun-17 14:28N 60°52' E 007°08'0 0.0
2017-Jun-17 13:28N 60°52' E 007°08'0 0.0
2017-Jun-17 12:58N 60°52' E 007°08'0 0.0
2017-Jun-17 12:28N 60°52' E 007°08'0 0.0
2017-Jun-17 11:58N 60°52' E 007°08'0 0.0
2017-Jun-17 11:28N 60°52' E 007°08'0 0.0
2017-Jun-17 10:58N 60°52' E 007°08'0 0.0
2017-Jun-17 10:28N 60°52' E 007°08'0 0.0
2017-Jun-17 09:58N 60°52' E 007°08'0 0.0
2017-Jun-17 09:28N 60°52' E 007°08'0 0.0
2017-Jun-17 08:58N 60°52' E 007°08'0 0.0
2017-Jun-17 08:28N 60°52' E 007°08'0 0.0
2017-Jun-17 07:58N 60°52' E 007°08'0 0.0
2017-Jun-17 07:28N 60°52' E 007°08'0 0.1
2017-Jun-17 06:58N 60°52' E 007°08'0 0.0
2017-Jun-17 06:28N 60°52' E 007°08'0 0.0
2017-Jun-17 05:58N 60°52' E 007°08'0 0.0
2017-Jun-17 05:28N 60°52' E 007°08'0 0.0
2017-Jun-17 04:58N 60°52' E 007°08'1 2.2
2017-Jun-17 04:30N 60°53' E 007°09'4 7.9
2017-Jun-17 04:00N 60°57' E 007°08'714.5
2017-Jun-17 03:30N 61°04' E 007°01'714.6
2017-Jun-17 03:00N 61°09' E 006°51'714.7
2017-Jun-17 02:30N 61°11' E 006°36'714.3
2017-Jun-17 02:00N 61°06' E 006°25'816.4
2017-Jun-17 01:30N 61°08' E 006°09'916.9
2017-Jun-17 01:00N 61°08' E 005°51'816.5
2017-Jun-17 00:30N 61°06' E 005°35'815.4
2017-Jun-17 00:00N 61°04' E 005°19'816.3
2017-Jun-16 23:31N 61°09' E 005°06'611.6
2017-Jun-16 23:00N 61°13' E 004°57'916.8
2017-Jun-16 22:30N 61°15' E 004°40'816.6
2017-Jun-16 22:00N 61°15' E 004°23'714.6
2017-Jun-16 21:30N 61°23' E 004°21'815.5
2017-Jun-16 21:00N 61°30' E 004°21'916.1
2017-Jun-16 20:27N 61°39' E 004°22'716.0
2017-Jun-16 20:00N 61°41' E 004°37'3 6.9
2017-Jun-16 19:30N 61°45' E 004°34'2514.5
2017-Jun-16 17:47N 62°09' E 004°28'2116.5
2017-Jun-16 16:30N 62°27' E 004°54'816.1
2017-Jun-16 16:00N 62°27' E 005°11'816.1
2017-Jun-16 15:30N 62°27' E 005°28'816.7
2017-Jun-16 15:00N 62°27' E 005°46'816.7
2017-Jun-16 14:30N 62°27' E 006°05'2 2.4
2017-Jun-16 13:30N 62°28' E 006°09'0 0.0
2017-Jun-16 13:00N 62°28' E 006°09'0 0.0
2017-Jun-16 12:30N 62°28' E 006°09'0 0.0
2017-Jun-16 12:00N 62°28' E 006°09'0 0.0
2017-Jun-16 11:30N 62°28' E 006°09'0 0.0
2017-Jun-16 11:00N 62°28' E 006°09'0 0.0
2017-Jun-16 10:30N 62°28' E 006°09'0 0.0
2017-Jun-16 10:00N 62°28' E 006°09'0 0.0
2017-Jun-16 09:30N 62°28' E 006°09'0 0.0
2017-Jun-16 09:00N 62°28' E 006°09'0 0.0
2017-Jun-16 08:30N 62°28' E 006°09'0 0.0
2017-Jun-16 08:00N 62°28' E 006°09'0 0.0
2017-Jun-16 07:30N 62°28' E 006°09'0 0.0
2017-Jun-16 07:00N 62°28' E 006°09'0 0.0
2017-Jun-16 06:30N 62°28' E 006°09'0 0.0
2017-Jun-16 06:00N 62°28' E 006°09'0 0.0
2017-Jun-16 05:30N 62°28' E 006°09'0 0.0
2017-Jun-16 05:00N 62°28' E 006°09'  
Track history (hours):
 
Tides and Currents Weather Stations Pressure Air Temp Water Temp Dewpoint Dewpoint Depression Visibility Wind Speed Wind Dir Waves Ship Positions

Rotterdam

Operator: Holland America Line

Last reported at 2017-Jun-26 04:46 UTC. Time now 2017-Jun-26 12:10 UTC.
Position N 56°01' W 003°19'.

Length 228 m; beam 29 m.

Type: Ship. MMSI: 24616700.

Date/timePositionNaut miles runAvg speedWind from/ knotsBaromVisibWave heightAir tempDewpointWater temp
2017-Jun-26 04:46N 56°01' W 003°19'415.4
2017-Jun-26 04:31N 56°02' W 003°12'714.3
2017-Jun-26 04:00N 56°05' W 003°00'5 9.6
2017-Jun-26 03:30N 56°06' W 002°52'510.9
2017-Jun-26 03:00N 56°08' W 002°43'510.3
2017-Jun-26 02:30N 56°08' W 002°34'510.8
2017-Jun-26 02:00N 56°08' W 002°24'510.7
2017-Jun-26 01:30N 56°08' W 002°14'510.3
2017-Jun-26 01:00N 56°06' W 002°06'510.8
2017-Jun-26 00:30N 56°03' W 001°57'510.0
2017-Jun-26 00:00N 56°01' W 001°50'1197625.4
2017-Jun-26 00:00N 55°54' E 001°42'114234.4 290 / 251008.810.8 13.0 7.916.0
2017-Jun-25 23:30N 55°58' W 001°42'1511.3
2017-Jun-25 22:13N 55°49' W 001°21'1 6.6
2017-Jun-25 22:00N 55°48' W 001°19'1014.8
2017-Jun-25 21:18N 55°41' W 001°07'6410.3
2017-Jun-25 15:05N 54°57' E 000°16'110.1
2017-Jun-25 15:00N 54°57' E 000°17'4310.8
2017-Jun-25 11:00N 54°24' E 001°06'103 9.4 250 / 221006.810.8 14.0 8.215.0
2017-Jun-25 00:00N 53°00' E 002°48'6511.2 250 / 231006.810.8 15.513.517.0
2017-Jun-24 18:12N 52°05' E 003°45'0 0.0
2017-Jun-24 18:00N 52°05' E 003°45'4 8.4
2017-Jun-24 17:30N 52°04' E 003°51'5 9.6
2017-Jun-24 17:00N 52°01' E 003°58'713.2
2017-Jun-24 16:30N 51°58' E 004°08'611.6
2017-Jun-24 16:00N 51°55' E 004°15'5 9.0
2017-Jun-24 15:30N 51°54' E 004°22'3 7.0
2017-Jun-24 15:00N 51°54' E 004°28'1 0.9
2017-Jun-24 14:00N 51°54' E 004°29'0 0.0
2017-Jun-24 13:30N 51°54' E 004°29'0 0.0
2017-Jun-24 13:00N 51°54' E 004°29'0 0.0
2017-Jun-24 12:30N 51°54' E 004°29'0 0.0
2017-Jun-24 12:00N 51°54' E 004°29'0 0.0
2017-Jun-24 11:30N 51°54' E 004°29'0 0.0
2017-Jun-24 11:00N 51°54' E 004°29'0 0.0
2017-Jun-24 10:30N 51°54' E 004°29'0 0.0
2017-Jun-24 10:00N 51°54' E 004°29'0 0.0
2017-Jun-24 09:30N 51°54' E 004°29'0 0.0
2017-Jun-24 09:00N 51°54' E 004°29'0 0.0
2017-Jun-24 08:30N 51°54' E 004°29'0 0.0
2017-Jun-24 08:00N 51°54' E 004°29'0 0.0
2017-Jun-24 07:30N 51°54' E 004°29'0 0.0
2017-Jun-24 07:00N 51°54' E 004°29'0 0.0
2017-Jun-24 06:30N 51°54' E 004°29'0 0.0
2017-Jun-24 06:00N 51°54' E 004°29'0 0.0
2017-Jun-24 05:30N 51°54' E 004°29'0 0.1
2017-Jun-24 05:00N 51°54' E 004°29'0 0.7
2017-Jun-24 04:30N 51°54' E 004°29'3 6.8
2017-Jun-24 04:00N 51°54' E 004°23'4 7.6
2017-Jun-24 03:30N 51°54' E 004°17'510.9
2017-Jun-24 03:01N 51°57' E 004°10'714.0
2017-Jun-24 02:30N 52°00' E 003°60'713.9
2017-Jun-24 02:00N 52°01' E 003°48'714.2
2017-Jun-24 01:30N 52°08' E 003°46'714.7
2017-Jun-24 01:00N 52°15' E 003°47'714.7
2017-Jun-24 00:30N 52°22' E 003°48'714.4
2017-Jun-24 00:00N 52°30' E 003°48'0117.2
2017-Jun-24 00:00N 52°30' E 003°48'713.8 250 / 311012.110.8 17.413.918.0
2017-Jun-23 23:30N 52°37' E 003°50'714.5
2017-Jun-23 23:00N 52°43' E 003°55'714.7
2017-Jun-23 22:30N 52°50' E 003°57'815.2
2017-Jun-23 22:00N 52°58' E 004°02'816.7
2017-Jun-23 21:30N 53°03' E 004°13'916.8
2017-Jun-23 21:00N 53°09' E 004°23'916.9
2017-Jun-23 20:29N 53°17' E 004°28'816.7
2017-Jun-23 20:00N 53°24' E 004°33'28216.5
2017-Jun-23 02:54N 57°32' E 008°33'616.7
2017-Jun-23 02:30N 57°37' E 008°40'916.8
2017-Jun-23 02:00N 57°43' E 008°51'817.1
2017-Jun-23 01:30N 57°50' E 009°00'816.9
2017-Jun-23 01:00N 57°56' E 009°11'5216.7
2017-Jun-22 21:55N 58°37' E 010°10'716.6
2017-Jun-22 21:30N 58°43' E 010°19'816.8
2017-Jun-22 21:00N 58°49' E 010°29'816.1
2017-Jun-22 20:30N 58°57' E 010°34'816.3
2017-Jun-22 20:01N 59°05' E 010°35'714.7
2017-Jun-22 19:30N 59°12' E 010°38'816.7
2017-Jun-22 19:00N 59°20' E 010°35'816.2
2017-Jun-22 18:30N 59°28' E 010°33'713.9
2017-Jun-22 18:00N 59°35' E 010°38'611.4
2017-Jun-22 17:31N 59°40' E 010°37'510.2
2017-Jun-22 17:01N 59°45' E 010°33'713.5
2017-Jun-22 16:30N 59°52' E 010°37'4 8.5
2017-Jun-22 16:00N 59°54' E 010°44'0 0.1
2017-Jun-22 15:29N 59°54' E 010°44'0 0.0
2017-Jun-22 14:59N 59°54' E 010°44'0 0.0
2017-Jun-22 13:59N 59°54' E 010°44'0 0.0
2017-Jun-22 13:29N 59°54' E 010°44'0 0.0
2017-Jun-22 12:59N 59°54' E 010°44'0 0.0
2017-Jun-22 12:29N 59°54' E 010°44'0 0.0
2017-Jun-22 11:59N 59°54' E 010°44'0 0.0
2017-Jun-22 11:29N 59°54' E 010°44'0 0.0
2017-Jun-22 10:59N 59°54' E 010°44'0 0.0
2017-Jun-22 10:29N 59°54' E 010°44'0 0.0
2017-Jun-22 09:59N 59°54' E 010°44'0 0.0
2017-Jun-22 09:29N 59°54' E 010°44'0 0.0
2017-Jun-22 08:59N 59°54' E 010°44'0 0.0
2017-Jun-22 08:29N 59°54' E 010°44'0 0.0
2017-Jun-22 07:59N 59°54' E 010°44'0 0.0
2017-Jun-22 07:29N 59°54' E 010°44'0 0.0
2017-Jun-22 06:59N 59°54' E 010°44'0 0.0
2017-Jun-22 06:29N 59°54' E 010°44'0 0.0
2017-Jun-22 05:59N 59°54' E 010°44'0 0.0
2017-Jun-22 05:29N 59°54' E 010°44'0 0.0
2017-Jun-22 04:59N 59°54' E 010°44'0 0.0
2017-Jun-22 04:29N 59°54' E 010°44'0 0.0
2017-Jun-22 03:59N 59°54' E 010°44'0 0.0
2017-Jun-22 03:29N 59°54' E 010°44'0 0.0
2017-Jun-22 02:59N 59°54' E 010°44'0 0.0
2017-Jun-22 02:29N 59°54' E 010°44'0 0.0
2017-Jun-22 01:59N 59°54' E 010°44'0 0.0
2017-Jun-22 01:29N 59°54' E 010°44'0 0.0
2017-Jun-22 00:59N 59°54' E 010°44'0 0.0
2017-Jun-22 00:29N 59°54' E 010°44'0 0.0
2017-Jun-21 23:59N 59°54' E 010°44'0 0.0
2017-Jun-21 23:29N 59°54' E 010°44'0 0.0
2017-Jun-21 22:59N 59°54' E 010°44'0 0.0
2017-Jun-21 22:29N 59°54' E 010°44'0 0.0
2017-Jun-21 21:59N 59°54' E 010°44'0 0.0
2017-Jun-21 21:29N 59°54' E 010°44'0 0.0
2017-Jun-21 20:59N 59°54' E 010°44'0 0.0
2017-Jun-21 20:29N 59°54' E 010°44'0 0.0
2017-Jun-21 19:59N 59°54' E 010°44'0 0.0
2017-Jun-21 19:29N 59°54' E 010°44'0 0.0
2017-Jun-21 18:59N 59°54' E 010°44'0 0.0
2017-Jun-21 18:29N 59°54' E 010°44'0 0.0
2017-Jun-21 17:59N 59°54' E 010°44'0 0.0
2017-Jun-21 17:29N 59°54' E 010°44'0 0.0
2017-Jun-21 16:59N 59°54' E 010°44'0 0.0
2017-Jun-21 16:29N 59°54' E 010°44'0 0.0
2017-Jun-21 15:59N 59°54' E 010°44'0 0.0
2017-Jun-21 15:29N 59°54' E 010°44'0 0.0
2017-Jun-21 14:59N 59°54' E 010°44'0 0.0
2017-Jun-21 13:59N 59°54' E 010°44'0 0.0
2017-Jun-21 13:29N 59°54' E 010°44'0 0.0
2017-Jun-21 12:59N 59°54' E 010°44'0 0.0
2017-Jun-21 12:29N 59°54' E 010°44'0 0.0
2017-Jun-21 11:59N 59°54' E 010°44'0 0.0
2017-Jun-21 11:29N 59°54' E 010°44'0 0.0
2017-Jun-21 10:59N 59°54' E 010°44'0 0.0
2017-Jun-21 10:29N 59°54' E 010°44'0 0.0
2017-Jun-21 09:59N 59°54' E 010°44'0 0.0
2017-Jun-21 09:29N 59°54' E 010°44'0 0.0
2017-Jun-21 08:59N 59°54' E 010°44'0 0.0
2017-Jun-21 08:29N 59°54' E 010°44'0 0.0
2017-Jun-21 07:59N 59°54' E 010°44'0 0.0
2017-Jun-21 07:29N 59°54' E 010°44'0 0.0
2017-Jun-21 06:59N 59°54' E 010°44'0 0.0
2017-Jun-21 06:29N 59°54' E 010°44'0 0.0
2017-Jun-21 05:59N 59°54' E 010°44'0 0.0
2017-Jun-21 05:31N 59°54' E 010°44'2 4.4
2017-Jun-21 05:00N 59°53' E 010°40'713.6
2017-Jun-21 04:30N 59°47' E 010°35'612.5
2017-Jun-21 04:00N 59°41' E 010°36'612.9
2017-Jun-21 03:31N 59°35' E 010°38'713.9
2017-Jun-21 03:01N 59°28' E 010°34'816.5
2017-Jun-21 02:31N 59°20' E 010°36'816.4
2017-Jun-21 02:01N 59°12' E 010°39'714.3
2017-Jun-21 01:31N 59°05' E 010°36'510.9
2017-Jun-21 01:01N 58°59' E 010°33'611.7
2017-Jun-21 00:31N 58°55' E 010°26'611.7
2017-Jun-21 00:00N 58°51' E 010°19'3184.0
2017-Jun-21 00:00N 58°48' E 010°18'4 8.3 320 / 301011.910.8 13.7 3.216.0
2017-Jun-20 23:31N 58°46' E 010°11'511.0
2017-Jun-20 23:01N 58°42' E 010°04'10910.6
2017-Jun-20 12:39N 57°43' E 007°10'211.7
2017-Jun-20 12:28N 57°43' E 007°06'511.8
2017-Jun-20 12:00N 57°43' E 006°56'611.8
2017-Jun-20 11:30N 57°43' E 006°45'611.3
2017-Jun-20 11:00N 57°44' E 006°34'611.4
2017-Jun-20 10:30N 57°47' E 006°26'510.8
2017-Jun-20 10:00N 57°51' E 006°18'33372.8
2017-Jun-20 10:00N 57°48' E 006°18'715.0 300 / 281017.410.8 16.6 6.115.0
2017-Jun-20 09:30N 57°54' E 006°11'510.3
2017-Jun-20 09:00N 57°57' E 006°03'5 9.3
2017-Jun-20 08:29N 58°01' E 005°57'510.2
2017-Jun-20 08:00N 58°04' E 005°50'1211.7
2017-Jun-20 06:58N 58°12' E 005°32'1811.6
2017-Jun-20 05:28N 58°24' E 005°08'511.4
2017-Jun-20 05:00N 58°28' E 005°01'611.5
2017-Jun-20 04:30N 58°32' E 004°53'611.7
2017-Jun-20 04:00N 58°36' E 004°46'38 9.5
2017-Jun-20 00:00N 59°06' E 004°00'4911.6 280 / 271015.510.8 12.2 8.114.0
2017-Jun-19 19:49N 59°51' E 004°36'311.1
2017-Jun-19 19:30N 59°54' E 004°39'610.9
2017-Jun-19 19:00N 59°59' E 004°45'611.1
2017-Jun-19 18:30N 60°04' E 004°51'611.3
2017-Jun-19 18:00N 60°08' E 004°57'510.6
2017-Jun-19 17:30N 60°10' E 005°07'713.2
2017-Jun-19 17:00N 60°16' E 005°10'611.6
2017-Jun-19 16:30N 60°22' E 005°10'5 9.5
2017-Jun-19 16:00N 60°24' E 005°19'0 0.2
2017-Jun-19 15:30N 60°24' E 005°19'0 0.0
2017-Jun-19 15:00N 60°24' E 005°19'0 0.0
2017-Jun-19 14:30N 60°24' E 005°19'0 0.0
2017-Jun-19 13:30N 60°24' E 005°19'0 0.0
2017-Jun-19 13:00N 60°24' E 005°19'0 0.0
2017-Jun-19 12:30N 60°24' E 005°19'0 0.0
2017-Jun-19 12:00N 60°24' E 005°19'0 0.0
2017-Jun-19 11:30N 60°24' E 005°19'0 0.0
2017-Jun-19 11:00N 60°24' E 005°19'0 0.0
2017-Jun-19 10:30N 60°24' E 005°19'0 0.0
2017-Jun-19 10:00N 60°24' E 005°19'0 0.0
2017-Jun-19 09:30N 60°24' E 005°19'0 0.0
2017-Jun-19 09:00N 60°24' E 005°19'0 0.0
2017-Jun-19 08:30N 60°24' E 005°19'0 0.0
2017-Jun-19 08:00N 60°24' E 005°19'0 0.0
2017-Jun-19 07:30N 60°24' E 005°19'0 0.0
2017-Jun-19 07:00N 60°24' E 005°19'0 0.0
2017-Jun-19 06:30N 60°24' E 005°19'0 0.0
2017-Jun-19 06:00N 60°24' E 005°19'0 0.0
2017-Jun-19 05:30N 60°24' E 005°19'0 0.0
2017-Jun-19 04:57N 60°24' E 005°19'0 0.0
2017-Jun-19 04:30N 60°24' E 005°19'0 0.0
2017-Jun-19 04:00N 60°24' E 005°19'0 0.0
2017-Jun-19 03:30N 60°24' E 005°19'0 0.0
2017-Jun-19 03:00N 60°24' E 005°19'072.5
2017-Jun-19 03:00N 60°24' E 005°18'0 0.7 220 / 31018.4 5.4 12.5 8.613.0
2017-Jun-19 02:30N 60°24' E 005°19'0 0.0
2017-Jun-19 02:00N 60°24' E 005°19'0 0.0
2017-Jun-19 01:30N 60°24' E 005°19'0 0.0
2017-Jun-19 01:00N 60°24' E 005°19'0 0.0
2017-Jun-19 00:30N 60°24' E 005°19'0 0.0
2017-Jun-19 00:00N 60°24' E 005°19'0 0.0
2017-Jun-18 23:30N 60°24' E 005°19'0 0.0
2017-Jun-18 23:00N 60°24' E 005°19'0 0.0
2017-Jun-18 22:30N 60°24' E 005°19'0 0.0
2017-Jun-18 22:00N 60°24' E 005°19'0 0.0
2017-Jun-18 21:30N 60°24' E 005°19'0 0.0
2017-Jun-18 21:00N 60°24' E 005°19'0 0.0
2017-Jun-18 20:30N 60°24' E 005°19'0 0.0
2017-Jun-18 20:00N 60°24' E 005°19'0 0.0
2017-Jun-18 19:30N 60°24' E 005°19'0 0.0
2017-Jun-18 19:00N 60°24' E 005°19'0 0.0
2017-Jun-18 18:30N 60°24' E 005°19'0 0.0
2017-Jun-18 18:00N 60°24' E 005°19'0 0.0
2017-Jun-18 17:30N 60°24' E 005°19'0 0.0
2017-Jun-18 17:00N 60°24' E 005°19'0 0.0
2017-Jun-18 16:30N 60°24' E 005°19'0 0.0
2017-Jun-18 16:00N 60°24' E 005°19'0 0.0
2017-Jun-18 15:30N 60°24' E 005°19'0 0.0
2017-Jun-18 15:00N 60°24' E 005°19'0 0.0
2017-Jun-18 14:00N 60°24' E 005°19'0 0.0
2017-Jun-18 13:30N 60°24' E 005°19'0 0.0
2017-Jun-18 13:00N 60°24' E 005°19'0 0.0
2017-Jun-18 12:30N 60°24' E 005°19'0 0.0
2017-Jun-18 12:00N 60°24' E 005°19'0 0.0
2017-Jun-18 11:30N 60°24' E 005°19'0 0.0
2017-Jun-18 11:00N 60°24' E 005°19'0 0.0
2017-Jun-18 10:30N 60°24' E 005°19'0 0.0
2017-Jun-18 10:00N 60°24' E 005°19'0 0.0
2017-Jun-18 09:30N 60°24' E 005°19'0 0.0
2017-Jun-18 09:00N 60°24' E 005°19'0 0.0
2017-Jun-18 08:30N 60°24' E 005°19'0 0.0
2017-Jun-18 07:57N 60°24' E 005°19'0 0.0
2017-Jun-18 07:30N 60°24' E 005°19'0 0.0
2017-Jun-18 07:00N 60°24' E 005°19'0 0.0
2017-Jun-18 06:30N 60°24' E 005°19'0 0.0
2017-Jun-18 06:00N 60°24' E 005°19'0 0.3
2017-Jun-18 05:30N 60°24' E 005°18'4 7.7
2017-Jun-18 05:00N 60°23' E 005°11'5 9.8
2017-Jun-18 04:30N 60°26' E 005°02'611.7
2017-Jun-18 04:00N 60°31' E 004°58'510.9
2017-Jun-18 03:30N 60°36' E 004°54'611.2
2017-Jun-18 03:00N 60°41' E 004°49'612.0
2017-Jun-18 02:30N 60°45' E 004°39'612.2
2017-Jun-18 02:01N 60°45' E 004°26'1010.2
2017-Jun-18 01:00N 60°42' E 004°06'11 8.0 220 / 161015.8 5.4 12.011.812.0
2017-Jun-17 23:39N 60°51' E 004°17'316.6
2017-Jun-17 23:30N 60°52' E 004°22'816.5
2017-Jun-17 23:00N 60°55' E 004°38'816.2
2017-Jun-17 22:30N 61°00' E 004°49'816.3
2017-Jun-17 22:00N 61°05' E 005°04'815.5
2017-Jun-17 21:30N 61°04' E 005°19'816.0
2017-Jun-17 21:00N 61°06' E 005°35'917.5
2017-Jun-17 20:30N 61°09' E 005°53'917.8
2017-Jun-17 19:59N 61°08' E 006°12'816.9
2017-Jun-17 19:30N 61°06' E 006°29'815.4
2017-Jun-17 19:00N 61°11' E 006°42'816.2
2017-Jun-17 18:30N 61°06' E 006°56'816.5
2017-Jun-17 18:00N 60°59' E 007°04'612.5
2017-Jun-17 17:30N 60°53' E 007°09'1 2.3
2017-Jun-17 16:58N 60°52' E 007°08'0 0.0
2017-Jun-17 16:28N 60°52' E 007°08'0 0.0
2017-Jun-17 15:58N 60°52' E 007°08'0 0.0
2017-Jun-17 15:28N 60°52' E 007°08'0 0.0
2017-Jun-17 14:58N 60°52' E 007°08'0 0.0
2017-Jun-17 14:28N 60°52' E 007°08'0 0.0
2017-Jun-17 13:28N 60°52' E 007°08'0 0.0
2017-Jun-17 12:58N 60°52' E 007°08'0 0.0
2017-Jun-17 12:28N 60°52' E 007°08'0 0.0
2017-Jun-17 11:58N 60°52' E 007°08'0 0.0
2017-Jun-17 11:28N 60°52' E 007°08'0 0.0
2017-Jun-17 10:58N 60°52' E 007°08'0 0.0
2017-Jun-17 10:28N 60°52' E 007°08'0 0.0
2017-Jun-17 09:58N 60°52' E 007°08'0 0.0
2017-Jun-17 09:28N 60°52' E 007°08'0 0.0
2017-Jun-17 08:58N 60°52' E 007°08'0 0.0
2017-Jun-17 08:28N 60°52' E 007°08'0 0.0
2017-Jun-17 07:58N 60°52' E 007°08'0 0.0
2017-Jun-17 07:28N 60°52' E 007°08'0 0.1
2017-Jun-17 06:58N 60°52' E 007°08'0 0.0
2017-Jun-17 06:28N 60°52' E 007°08'0 0.0
2017-Jun-17 05:58N 60°52' E 007°08'0 0.0
2017-Jun-17 05:28N 60°52' E 007°08'0 0.0
2017-Jun-17 04:58N 60°52' E 007°08'1 2.2
2017-Jun-17 04:30N 60°53' E 007°09'4 7.9
2017-Jun-17 04:00N 60°57' E 007°08'714.5
2017-Jun-17 03:30N 61°04' E 007°01'714.6
2017-Jun-17 03:00N 61°09' E 006°51'714.7
2017-Jun-17 02:30N 61°11' E 006°36'714.3
2017-Jun-17 02:00N 61°06' E 006°25'816.4
2017-Jun-17 01:30N 61°08' E 006°09'916.9
2017-Jun-17 01:00N 61°08' E 005°51'816.5
2017-Jun-17 00:30N 61°06' E 005°35'815.4
2017-Jun-17 00:00N 61°04' E 005°19'816.3
2017-Jun-16 23:31N 61°09' E 005°06'611.6
2017-Jun-16 23:00N 61°13' E 004°57'916.8
2017-Jun-16 22:30N 61°15' E 004°40'816.6
2017-Jun-16 22:00N 61°15' E 004°23'714.6
2017-Jun-16 21:30N 61°23' E 004°21'815.5
2017-Jun-16 21:00N 61°30' E 004°21'916.1
2017-Jun-16 20:27N 61°39' E 004°22'716.0
2017-Jun-16 20:00N 61°41' E 004°37'3 6.9
2017-Jun-16 19:30N 61°45' E 004°34'2514.5
2017-Jun-16 17:47N 62°09' E 004°28'2116.5
2017-Jun-16 16:30N 62°27' E 004°54'816.1
2017-Jun-16 16:00N 62°27' E 005°11'816.1
2017-Jun-16 15:30N 62°27' E 005°28'816.7
2017-Jun-16 15:00N 62°27' E 005°46'816.7
2017-Jun-16 14:30N 62°27' E 006°05'2 2.4
2017-Jun-16 13:30N 62°28' E 006°09'0 0.0
2017-Jun-16 13:00N 62°28' E 006°09'0 0.0
2017-Jun-16 12:30N 62°28' E 006°09'0 0.0
2017-Jun-16 12:00N 62°28' E 006°09'0 0.0
2017-Jun-16 11:30N 62°28' E 006°09'0 0.0
2017-Jun-16 11:00N 62°28' E 006°09'0 0.0
2017-Jun-16 10:30N 62°28' E 006°09'0 0.0
2017-Jun-16 10:00N 62°28' E 006°09'0 0.0
2017-Jun-16 09:30N 62°28' E 006°09'0 0.0
2017-Jun-16 09:00N 62°28' E 006°09'0 0.0
2017-Jun-16 08:30N 62°28' E 006°09'0 0.0
2017-Jun-16 08:00N 62°28' E 006°09'0 0.0
2017-Jun-16 07:30N 62°28' E 006°09'0 0.0
2017-Jun-16 07:00N 62°28' E 006°09'0 0.0
2017-Jun-16 06:30N 62°28' E 006°09'0 0.0
2017-Jun-16 06:00N 62°28' E 006°09'0 0.0
2017-Jun-16 05:30N 62°28' E 006°09'0 0.0
2017-Jun-16 05:00N 62°28' E 006°09'  

Dump ship's entire track history